航空気象通報

ウインドサーファーのための航空気象通報による風予報です。

4/19-4/21の航空気象通報

2017年04月19日 22時40分26秒 | TAF
羽田空港
TAF RJTT 191106Z 1912/2018 33015KT 9999 FEW030
TEMPO 1915/1918 34020G30KT
BECMG 2000/2003 20010KT
日本時間19日21時-20日09時:330度から15ノットの風
但し、20日00-03時の間:ときどき340度から20ノット、突風30ノット
09-12時:風が変化
12時-21日03時:200度から10ノットの風


静岡空港
TAF RJNS 191105Z 1912/2018 28015KT 9999 FEW025
BECMG 1920/1922 34004KT
BECMG 1922/2000 18008KT
BECMG 2009/2012 29005KT
日本時間19日21時-20日05時:280度から15ノットの風
05-07時:風が変化
07時:340度から4ノットの風
07-09時:風が変化
09-18時:180度から8ノットの風
18-21時:風が変化
21時-21日03時:290度から5ノットの風


福岡空港
TAF RJFF 191105Z 1912/2018 29005KT CAVOK
BECMG 1912/1914 15012KT
日本時間19日21時:290度から5ノットの風
21-23時:風が変化
23時-21日03時:150度から12ノットの風


那覇空港
TAF ROAH 191107Z 1912/2018 13006KT 9999 SCT010
BECMG 2003/2006 19010KT
TEMPO 2006/2009 4000 SHRA FEW008 BKN015 FEW020CB
TEMPO 2012/2018 FEW005 BKN008
日本時間19日21時-20日12時:130度から6ノットの風
12-15時:風が変化
15時-21日03時:190度から10ノットの風

但し、20日15-18時の間:ときどき
但し、20日21時-21日03時の間:ときどき

石垣空港
TAF ROIG 191111Z 1912/2018 11010KT 9999 FEW008 BKN015
TEMPO 1912/1921 FEW005 BKN008
BECMG 1913/1915 17006KT
日本時間19日21-22時:110度から10ノットの風
22-24時:風が変化
20日00時-21日03時:170度から6ノットの風


マウイのカフルイ空港
PHOG 191146Z 1912/2012 VRB06KT P6SM SCT040
FM192000 35010KT P6SM FEW025 SCT050
FM200600 22006KT P6SM BKN050
ハワイ時間19日02-10時:風向不定6ノットの風
10-20時:350度から10ノットの風

20時-20日02時:220度から6ノットの風


サイパン空港
TAF PGSN 191131Z 1912/2012 08014KT P6SM VCSH SCT020 SCT050
マリアナ時間19日22時-20日22時:080度から14ノットの風

ジャンル:
お天気
コメント   この記事についてブログを書く
この記事をはてなブックマークに追加
« 4/16-4/18の航空気象通報 | トップ | 4/21-4/23の航空気象通報 »
最近の画像もっと見る

コメントを投稿

ブログ作成者から承認されるまでコメントは反映されません。

コメント利用規約に同意の上コメント投稿を行ってください。

数字4桁を入力し、投稿ボタンを押してください。

あわせて読む

トラックバック

この記事のトラックバック  Ping-URL
ブログ作成者から承認されるまでトラックバックは反映されません。
  • 30日以上前の記事に対するトラックバックは受け取らないよう設定されております。
  • 送信元の記事内容が半角英数のみのトラックバックは受け取らないよう設定されております。
  • このブログへのリンクがない記事からのトラックバックは受け取らないよう設定されております。
  • ※ブログ管理者のみ、編集画面で設定の変更が可能です。